Time;durP1;ratioP1;P1;durP2;ratioP2;P2;SDS_P1;SDS_P2;PMS_P1;PMS_P2;Temp;Humidity;BMP_temperature;BMP_pressure;BME280_temperature;BME280_humidity;BME280_pressure;Samples;Min_cycle;Max_cycle;Signal;HPM_P1;HPM_P2
2022/03/02 00:01:12;;;;;;;14.37;10.03;;;;;;;3.36;61.03;102518.06;5007109;28;20236;-55
2022/03/02 00:03:39;;;;;;;15.17;10.43;;;;;;;3.62;60.26;102508.25;5003558;28;20251;-55
2022/03/02 00:06:05;;;;;;;14.87;11.47;;;;;;;3.89;60.59;102507.16;5019271;28;20302;-54
2022/03/02 00:08:31;;;;;;;12.60;10.10;;;;;;;3.86;60.14;102506.09;5014011;28;20235;-55
2022/03/02 00:10:58;;;;;;;14.57;11.57;;;;;;;3.60;59.84;102502.97;5020736;28;20247;-56
2022/03/02 00:13:25;;;;;;;14.43;10.83;;;;;;;3.59;58.58;102504.66;5013539;28;20264;-54
2022/03/02 00:15:52;;;;;;;15.93;9.93;;;;;;;3.27;59.33;102512.34;5013173;28;20256;-53
2022/03/02 00:18:18;;;;;;;16.03;11.50;;;;;;;3.01;59.40;102514.31;5004516;28;20255;-52
2022/03/02 00:20:44;;;;;;;18.93;12.47;;;;;;;2.71;59.49;102505.66;5012645;28;20237;-54
2022/03/02 00:23:11;;;;;;;20.70;11.13;;;;;;;2.58;59.92;102510.91;5012450;28;20790;-54
2022/03/02 00:25:37;;;;;;;16.27;11.17;;;;;;;2.54;59.95;102506.34;5019193;28;20266;-54
2022/03/02 00:28:03;;;;;;;14.87;11.03;;;;;;;2.50;62.45;102504.38;5008377;28;20642;-55
2022/03/02 00:30:31;;;;;;;14.40;10.60;;;;;;;2.54;63.28;102504.63;5011192;28;20271;-55
2022/03/02 00:32:59;;;;;;;16.60;12.00;;;;;;;2.51;65.10;102501.84;5004103;28;20630;-53
2022/03/02 00:35:25;;;;;;;16.47;11.50;;;;;;;2.73;64.86;102492.75;5011670;28;20247;-54
2022/03/02 00:37:52;;;;;;;17.27;10.53;;;;;;;3.40;65.25;102488.84;4996675;28;20250;-56
2022/03/02 00:40:18;;;;;;;11.30;9.87;;;;;;;3.47;61.71;102484.91;5017140;28;20755;-53
2022/03/02 00:42:45;;;;;;;15.47;11.53;;;;;;;3.31;59.36;102510.00;5011464;28;20260;-55
2022/03/02 00:45:11;;;;;;;14.73;11.07;;;;;;;3.04;62.51;102509.31;5001506;28;20712;-56
2022/03/02 00:47:39;;;;;;;12.20;10.83;;;;;;;3.88;62.51;102501.88;5012300;28;20248;-53
2022/03/02 00:50:07;;;;;;;19.83;11.70;;;;;;;3.75;61.08;102503.81;5009102;28;20228;-55
2022/03/02 00:52:35;;;;;;;15.37;10.83;;;;;;;3.83;61.09;102494.75;5014663;28;20337;-56
2022/03/02 00:55:03;;;;;;;14.00;10.77;;;;;;;3.89;60.53;102491.56;5012679;28;20248;-55
2022/03/02 00:57:29;;;;;;;15.30;11.53;;;;;;;3.75;59.11;102480.41;5016491;28;20289;-55
2022/03/02 00:59:55;;;;;;;16.37;11.47;;;;;;;3.40;59.80;102487.97;5003194;28;20239;-55
2022/03/02 01:02:22;;;;;;;18.33;12.23;;;;;;;3.24;62.25;102500.09;5008415;28;20708;-55
2022/03/02 01:04:49;;;;;;;14.50;11.33;;;;;;;2.93;60.47;102488.75;5003109;28;20923;-53
2022/03/02 01:07:16;;;;;;;20.93;11.90;;;;;;;3.39;61.98;102486.19;4997299;28;20783;-55
2022/03/02 01:09:42;;;;;;;17.37;12.13;;;;;;;2.99;61.58;102487.41;5017064;28;20236;-56
2022/03/02 01:12:08;;;;;;;13.17;11.23;;;;;;;3.63;62.03;102482.34;4999413;28;20290;-54
2022/03/02 01:14:35;;;;;;;17.40;12.30;;;;;;;3.43;60.75;102477.75;5010214;28;20650;-55
2022/03/02 01:17:01;;;;;;;16.17;11.77;;;;;;;3.16;62.53;102480.59;5011373;28;20909;-55
2022/03/02 01:19:28;;;;;;;12.33;10.97;;;;;;;3.50;59.70;102477.28;5008468;28;20235;-52
2022/03/02 01:21:55;;;;;;;18.03;11.33;;;;;;;3.11;62.02;102484.59;5005396;28;20243;-51
2022/03/02 01:24:22;;;;;;;17.17;11.70;;;;;;;3.31;63.31;102468.47;5006388;28;20255;-55
2022/03/02 01:26:48;;;;;;;15.23;10.93;;;;;;;3.50;61.81;102466.91;4996291;28;20302;-52
2022/03/02 01:29:14;;;;;;;15.57;11.47;;;;;;;4.03;61.08;102466.34;5009027;28;20256;-54
2022/03/02 01:31:41;;;;;;;15.03;11.83;;;;;;;3.57;58.84;102461.25;5004356;28;20232;-54
2022/03/02 01:34:07;;;;;;;17.63;11.80;;;;;;;3.84;60.97;102461.88;4996990;28;20248;-53
2022/03/02 01:36:34;;;;;;;19.57;11.37;;;;;;;3.40;60.17;102454.22;5020329;28;20311;-58
2022/03/02 01:39:01;;;;;;;16.53;11.73;;;;;;;2.97;61.27;102455.28;5017570;28;20271;-53
2022/03/02 01:41:28;;;;;;;17.47;12.20;;;;;;;2.57;61.49;102462.44;5001363;28;20264;-53
2022/03/02 01:43:55;;;;;;;14.83;11.13;;;;;;;2.94;64.12;102462.88;5009481;28;20860;-55
2022/03/02 01:46:23;;;;;;;15.27;11.17;;;;;;;3.01;63.76;102464.13;5021005;28;20239;-56
2022/03/02 01:48:50;;;;;;;16.70;11.20;;;;;;;3.17;62.90;102453.81;5009023;28;20261;-55
2022/03/02 01:51:16;;;;;;;15.63;10.37;;;;;;;3.48;62.86;102450.38;5017818;28;21237;-54
2022/03/02 01:53:43;;;;;;;16.77;11.57;;;;;;;3.32;61.43;102452.09;5014521;28;20263;-55
2022/03/02 01:56:12;;;;;;;15.87;12.13;;;;;;;3.43;62.90;102444.88;5019034;28;20247;-54
2022/03/02 01:58:38;;;;;;;19.90;11.57;;;;;;;3.90;62.31;102438.81;5011550;28;20253;-54
2022/03/02 02:01:05;;;;;;;14.80;10.73;;;;;;;3.43;62.22;102444.00;5016367;28;20314;-53
2022/03/02 02:03:33;;;;;;;17.37;11.60;;;;;;;3.24;64.48;102437.78;5021244;28;20251;-53
2022/03/02 02:05:59;;;;;;;16.27;11.93;;;;;;;2.95;62.05;102430.03;4999452;28;20741;-54
2022/03/02 02:08:26;;;;;;;16.00;11.40;;;;;;;2.80;63.95;102417.97;5003721;28;20236;-54
2022/03/02 02:10:52;;;;;;;16.53;12.90;;;;;;;3.26;65.98;102418.00;4997173;28;20254;-53
2022/03/02 02:13:20;;;;;;;17.43;12.23;;;;;;;3.65;62.41;102427.88;5001326;28;20708;-55
2022/03/02 02:15:46;;;;;;;17.00;12.10;;;;;;;3.88;63.72;102421.34;4999487;28;20261;-54
2022/03/02 02:18:12;;;;;;;13.47;11.87;;;;;;;3.81;62.78;102417.53;5000586;28;20272;-56
2022/03/02 02:20:41;;;;;;;15.90;11.57;;;;;;;3.90;61.98;102409.34;5012295;28;20690;-56
2022/03/02 02:23:08;;;;;;;19.63;12.23;;;;;;;3.32;61.00;102413.16;5004395;28;20240;-55
2022/03/02 02:25:35;;;;;;;17.37;10.97;;;;;;;3.09;63.88;102406.69;5009832;28;20260;-55
2022/03/02 02:28:01;;;;;;;15.87;10.90;;;;;;;3.33;65.34;102393.28;5004547;28;20224;-54
2022/03/02 02:30:29;;;;;;;14.30;11.83;;;;;;;2.80;63.78;102404.13;5009750;28;20229;-54
2022/03/02 02:32:56;;;;;;;15.27;12.37;;;;;;;2.22;63.58;102406.81;5009943;28;20660;-56
2022/03/02 02:35:22;;;;;;;17.73;12.23;;;;;;;1.98;66.84;102402.75;5008645;28;20232;-56
2022/03/02 02:37:50;;;;;;;18.30;12.43;;;;;;;2.34;69.02;102401.44;5008006;28;21977;-55
2022/03/02 02:40:18;;;;;;;18.80;13.57;;;;;;;2.53;67.63;102393.97;5010238;28;20304;-57
2022/03/02 02:42:45;;;;;;;14.73;12.13;;;;;;;2.85;68.90;102392.34;5015784;28;20728;-55
2022/03/02 02:45:14;;;;;;;18.77;12.40;;;;;;;2.91;67.12;102381.38;5017979;28;20233;-56
2022/03/02 02:47:40;;;;;;;16.03;11.40;;;;;;;3.02;64.74;102390.66;5009027;28;20319;-54
2022/03/02 02:50:15;;;;;;;17.87;11.37;;;;;;;2.78;65.39;102401.47;5010822;28;20223;-55
2022/03/02 02:52:42;;;;;;;21.20;12.07;;;;;;;3.36;65.98;102385.66;4989368;28;20295;-55
2022/03/02 02:55:11;;;;;;;18.67;13.23;;;;;;;3.11;65.56;102383.41;5007865;28;20360;-55
2022/03/02 02:57:37;;;;;;;22.33;12.30;;;;;;;2.73;66.02;102386.44;4996487;28;20675;-54
2022/03/02 03:00:08;;;;;;;18.80;12.47;;;;;;;2.56;64.39;102390.63;5003710;28;21027;-55
2022/03/02 03:02:34;;;;;;;16.03;12.40;;;;;;;2.55;65.11;102383.66;5011593;28;20517;-56
2022/03/02 03:05:00;;;;;;;16.17;13.40;;;;;;;2.43;67.01;102385.56;5016405;28;20305;-53
2022/03/02 03:07:27;;;;;;;16.87;13.27;;;;;;;2.66;66.57;102385.19;5022034;28;20244;-55
2022/03/02 03:09:54;;;;;;;22.87;14.30;;;;;;;3.06;66.13;102371.91;5011403;28;20643;-54
2022/03/02 03:12:21;;;;;;;20.47;13.20;;;;;;;2.49;66.93;102379.03;5012186;28;20235;-54
2022/03/02 03:14:48;;;;;;;20.17;13.67;;;;;;;2.32;67.18;102380.63;5004014;28;20252;-54
2022/03/02 03:17:14;;;;;;;18.90;13.03;;;;;;;2.39;68.27;102369.81;5002800;28;20298;-57
2022/03/02 03:19:40;;;;;;;18.87;12.83;;;;;;;2.43;69.60;102375.19;5004429;28;20253;-54
2022/03/02 03:22:07;;;;;;;19.43;13.30;;;;;;;2.69;68.66;102363.72;4999450;28;20294;-54
2022/03/02 03:24:34;;;;;;;19.80;12.13;;;;;;;3.34;68.32;102359.63;5003493;28;20844;-56
2022/03/02 03:27:00;;;;;;;19.73;13.63;;;;;;;3.46;66.19;102364.56;4999806;28;20233;-55
2022/03/02 03:29:28;;;;;;;15.60;12.17;;;;;;;3.51;64.92;102357.94;5010978;28;20827;-55
2022/03/02 03:31:54;;;;;;;18.30;14.13;;;;;;;3.23;65.26;102359.81;5012769;28;20227;-55
2022/03/02 03:34:21;;;;;;;18.97;14.00;;;;;;;2.92;64.72;102363.34;5017939;28;20298;-54
2022/03/02 03:36:47;;;;;;;19.03;13.17;;;;;;;2.80;65.41;102353.13;5012508;28;20257;-53
2022/03/02 03:39:13;;;;;;;16.27;11.80;;;;;;;3.27;67.85;102347.13;5009571;28;20277;-57
2022/03/02 03:41:40;;;;;;;22.63;13.47;;;;;;;3.06;65.69;102345.94;5002747;28;20297;-55
2022/03/02 03:44:06;;;;;;;18.77;13.03;;;;;;;2.93;66.43;102351.25;5006836;28;20274;-55
2022/03/02 03:46:34;;;;;;;20.23;14.07;;;;;;;2.55;66.02;102360.34;5010439;28;20255;-53
2022/03/02 03:49:00;;;;;;;15.87;13.30;;;;;;;2.27;66.63;102363.91;5008176;28;20310;-55
2022/03/02 03:51:26;;;;;;;15.47;12.67;;;;;;;2.42;68.09;102369.09;4999432;28;20834;-56
2022/03/02 03:53:53;;;;;;;16.83;13.33;;;;;;;2.21;68.34;102363.56;5006527;28;20260;-55
2022/03/02 03:56:19;;;;;;;20.27;12.90;;;;;;;2.46;68.95;102352.94;5006058;28;20407;-55
2022/03/02 03:58:45;;;;;;;16.53;12.90;;;;;;;2.84;68.88;102344.75;5000984;28;20737;-54
2022/03/02 04:01:11;;;;;;;20.00;13.17;;;;;;;2.80;68.55;102340.16;4998565;28;20728;-57
2022/03/02 04:03:39;;;;;;;20.33;13.07;;;;;;;2.80;70.15;102337.56;5007185;28;20275;-54
2022/03/02 04:06:06;;;;;;;20.03;14.87;;;;;;;2.51;68.17;102348.00;5000186;28;20266;-55
2022/03/02 04:08:32;;;;;;;19.10;13.73;;;;;;;2.38;67.43;102352.47;5005339;28;20334;-55
2022/03/02 04:10:59;;;;;;;18.77;13.77;;;;;;;2.61;69.68;102348.63;5006928;28;20255;-54
2022/03/02 04:13:26;;;;;;;18.77;12.90;;;;;;;2.61;69.17;102355.50;5014964;28;20638;-56
2022/03/02 04:15:52;;;;;;;17.50;12.40;;;;;;;2.46;68.09;102357.19;5010227;28;20268;-56
2022/03/02 04:18:19;;;;;;;15.80;12.70;;;;;;;2.42;68.75;102357.84;5017237;28;20251;-54
2022/03/02 04:20:46;;;;;;;20.07;14.40;;;;;;;2.48;68.11;102353.91;5011827;28;20259;-55
2022/03/02 04:23:13;;;;;;;20.87;14.63;;;;;;;2.24;70.88;102343.00;5019181;28;20248;-55
2022/03/02 04:25:39;;;;;;;17.60;12.70;;;;;;;2.22;68.41;102346.31;5015744;28;20236;-54
2022/03/02 04:28:06;;;;;;;22.10;14.77;;;;;;;2.13;68.22;102350.13;5022878;28;20251;-56
2022/03/02 04:30:32;;;;;;;18.87;14.23;;;;;;;2.72;70.28;102338.84;5016622;28;20243;-55
2022/03/02 04:32:59;;;;;;;23.90;14.87;;;;;;;3.08;68.08;102341.72;5008990;28;20283;-54
2022/03/02 04:35:25;;;;;;;20.50;13.50;;;;;;;3.04;67.24;102344.94;5021446;28;20236;-53
2022/03/02 04:37:53;;;;;;;19.47;12.83;;;;;;;3.16;65.74;102349.91;5015542;28;20256;-53
2022/03/02 04:40:20;;;;;;;17.20;12.20;;;;;;;3.42;65.40;102352.25;5019539;28;20624;-54
2022/03/02 04:42:47;;;;;;;18.57;12.93;;;;;;;3.61;66.61;102348.91;5021914;28;20239;-56
2022/03/02 04:45:13;;;;;;;20.60;14.27;;;;;;;3.40;66.07;102340.88;5019320;28;20239;-54
2022/03/02 04:47:40;;;;;;;20.73;12.93;;;;;;;3.50;65.38;102350.06;5011603;28;20777;-56
2022/03/02 04:50:08;;;;;;;20.93;13.17;;;;;;;3.11;65.85;102339.28;5000819;28;20236;-56
2022/03/02 04:52:34;;;;;;;19.53;14.23;;;;;;;3.17;64.94;102342.22;5016795;28;20240;-55
2022/03/02 04:55:09;;;;;;;19.10;14.50;;;;;;;3.04;66.34;102331.97;5024021;28;20255;-55
2022/03/02 04:57:37;;;;;;;19.20;13.63;;;;;;;2.77;66.61;102328.72;5010377;28;20333;-55
2022/03/02 05:00:06;;;;;;;20.23;12.97;;;;;;;2.39;67.71;102343.03;5003332;28;20701;-56
2022/03/02 05:02:32;;;;;;;19.17;14.20;;;;;;;2.42;67.38;102331.91;5026888;28;20289;-53
2022/03/02 05:04:58;;;;;;;22.07;14.20;;;;;;;2.47;70.60;102321.00;5015874;28;20282;-55
2022/03/02 05:07:24;;;;;;;21.00;13.10;;;;;;;2.66;68.22;102322.06;5019536;28;20255;-56
2022/03/02 05:09:51;;;;;;;19.97;13.90;;;;;;;2.22;68.38;102323.88;5015799;28;20243;-54
2022/03/02 05:12:20;;;;;;;21.47;14.43;;;;;;;2.27;66.23;102324.16;5014058;28;20227;-56
2022/03/02 05:14:47;;;;;;;17.47;13.60;;;;;;;2.73;67.02;102313.81;5009935;28;20282;-54
2022/03/02 05:17:13;;;;;;;20.13;12.80;;;;;;;2.67;66.82;102319.56;5007636;28;20745;-56
2022/03/02 05:19:40;;;;;;;17.37;13.17;;;;;;;3.15;66.65;102330.88;5011066;28;20236;-52
2022/03/02 05:22:06;;;;;;;18.67;14.13;;;;;;;3.44;65.51;102324.69;5007822;28;20235;-56
2022/03/02 05:24:32;;;;;;;21.23;14.67;;;;;;;3.11;64.70;102318.53;5022198;28;20259;-55
2022/03/02 05:26:59;;;;;;;21.60;14.60;;;;;;;2.69;63.80;102317.03;5022502;28;20322;-54
2022/03/02 05:29:26;;;;;;;17.53;12.93;;;;;;;2.56;64.67;102323.22;5012968;28;20337;-54
2022/03/02 05:31:53;;;;;;;22.30;13.77;;;;;;;2.24;65.03;102322.25;5008310;28;20256;-56
2022/03/02 05:34:19;;;;;;;25.00;15.67;;;;;;;2.17;66.36;102325.31;4999801;28;20240;-53
2022/03/02 05:36:45;;;;;;;22.50;15.37;;;;;;;2.27;68.46;102321.56;5000353;28;20333;-54
2022/03/02 05:39:12;;;;;;;20.13;14.43;;;;;;;2.21;65.62;102331.56;5011286;28;20316;-55
2022/03/02 05:41:38;;;;;;;20.60;15.50;;;;;;;2.18;66.09;102328.78;5009595;28;20286;-57
2022/03/02 05:44:07;;;;;;;25.27;15.50;;;;;;;2.17;67.34;102314.94;5001293;28;20236;-54
2022/03/02 05:46:35;;;;;;;23.33;15.17;;;;;;;2.24;65.84;102316.19;5003392;28;20244;-55
2022/03/02 05:49:02;;;;;;;22.73;15.57;;;;;;;2.40;65.77;102313.69;5022228;28;20280;-55
2022/03/02 05:51:28;;;;;;;24.93;16.10;;;;;;;2.24;65.55;102319.66;5019439;28;20326;-54
2022/03/02 05:53:54;;;;;;;21.83;15.13;;;;;;;2.41;65.88;102309.41;5011196;28;20232;-55
2022/03/02 05:56:20;;;;;;;27.73;15.57;;;;;;;2.45;66.03;102308.75;5008281;28;20345;-52
2022/03/02 05:58:47;;;;;;;18.67;14.37;;;;;;;2.48;67.86;102316.72;5001979;28;20329;-55
2022/03/02 06:01:13;;;;;;;19.70;15.40;;;;;;;2.59;67.17;102310.44;5008820;28;20260;-57
2022/03/02 06:03:41;;;;;;;20.73;15.53;;;;;;;2.52;66.87;102323.84;5024792;28;20293;-54
2022/03/02 06:06:07;;;;;;;21.17;16.40;;;;;;;2.85;64.18;102323.19;5011502;28;20228;-54
2022/03/02 06:08:34;;;;;;;21.97;15.73;;;;;;;2.85;64.10;102333.56;5013102;28;20658;-55
2022/03/02 06:11:01;;;;;;;20.67;16.30;;;;;;;2.71;64.51;102321.53;5012253;28;20252;-54
2022/03/02 06:13:27;;;;;;;24.00;16.47;;;;;;;2.78;65.12;102328.84;5008101;28;20283;-56
2022/03/02 06:15:54;;;;;;;22.43;15.73;;;;;;;2.46;67.52;102334.78;5019952;28;20269;-56
2022/03/02 06:18:21;;;;;;;23.20;15.70;;;;;;;3.18;67.25;102325.84;5003049;28;20316;-54
2022/03/02 06:20:50;;;;;;;26.03;15.23;;;;;;;3.68;65.52;102325.06;5008550;28;20305;-53
2022/03/02 06:23:18;;;;;;;26.67;17.33;;;;;;;3.43;64.16;102324.56;5007210;28;20650;-55
2022/03/02 06:25:45;;;;;;;22.77;17.40;;;;;;;3.18;64.65;102320.66;5016409;28;20240;-55
2022/03/02 06:28:12;;;;;;;26.80;17.33;;;;;;;3.64;63.40;102322.22;5010288;28;20255;-55
2022/03/02 06:30:38;;;;;;;25.53;17.40;;;;;;;3.32;63.89;102319.69;5002086;28;20229;-55
2022/03/02 06:33:05;;;;;;;24.30;17.90;;;;;;;3.40;62.84;102321.81;5008336;28;20241;-56
2022/03/02 06:35:31;;;;;;;22.33;17.20;;;;;;;3.22;64.43;102322.59;5008445;28;20311;-54
2022/03/02 06:37:59;;;;;;;27.40;17.83;;;;;;;3.19;64.64;102321.53;5018415;28;20239;-54
2022/03/02 06:40:25;;;;;;;26.70;19.80;;;;;;;2.78;62.87;102323.66;5020118;28;20248;-53
2022/03/02 06:43:04;;;;;;;30.63;19.20;;;;;;;2.96;63.21;102331.56;5009929;28;20232;-53
2022/03/02 06:45:54;;;;;;;27.87;18.57;;;;;;;2.69;66.52;102328.31;5005977;28;20236;-55
2022/03/02 06:48:23;;;;;;;28.13;17.73;;;;;;;2.93;64.98;102333.09;4995605;28;20237;-53
2022/03/02 06:50:53;;;;;;;26.03;18.10;;;;;;;3.13;63.90;102322.13;5020863;28;20274;-56
2022/03/02 06:53:28;;;;;;;22.60;17.23;;;;;;;3.13;63.43;102329.91;5003835;28;20302;-52
2022/03/02 06:55:55;;;;;;;28.80;18.67;;;;;;;3.34;65.13;102328.47;5010952;28;20256;-56
2022/03/02 06:58:21;;;;;;;28.77;17.27;;;;;;;3.34;62.46;102328.47;5004654;28;20364;-52
2022/03/02 07:00:52;;;;;;;27.87;18.00;;;;;;;3.81;62.73;102326.59;5010108;28;20241;-54
2022/03/02 07:03:21;;;;;;;27.27;19.13;;;;;;;3.29;61.34;102335.09;5022023;28;20309;-54
2022/03/02 07:05:47;;;;;;;25.13;17.37;;;;;;;3.38;63.76;102331.25;5017601;28;20941;-53
2022/03/02 07:08:17;;;;;;;25.33;17.97;;;;;;;3.18;63.83;102328.44;5005811;28;20255;-56
2022/03/02 07:10:44;;;;;;;27.13;16.47;;;;;;;3.15;61.29;102330.88;5009367;28;20228;-53
2022/03/02 07:13:11;;;;;;;28.27;18.37;;;;;;;2.99;62.57;102329.16;4997649;28;20257;-55
2022/03/02 07:15:37;;;;;;;30.00;19.37;;;;;;;3.38;61.40;102318.25;5009623;28;20335;-54
2022/03/02 07:18:04;;;;;;;26.23;17.50;;;;;;;3.42;64.08;102325.41;5015644;28;20239;-54
2022/03/02 07:20:31;;;;;;;29.73;18.07;;;;;;;3.50;63.44;102331.88;5022326;28;20244;-54
2022/03/02 07:22:59;;;;;;;27.53;19.23;;;;;;;3.48;63.72;102331.81;5023382;28;20236;-55
2022/03/02 07:25:28;;;;;;;26.63;18.23;;;;;;;3.38;62.04;102328.66;5023267;28;20239;-55
2022/03/02 07:27:57;;;;;;;24.57;16.77;;;;;;;3.60;63.64;102323.78;5008388;28;20237;-55
2022/03/02 07:30:25;;;;;;;28.17;18.83;;;;;;;3.70;62.45;102322.56;4997416;28;20295;-56
2022/03/02 07:32:55;;;;;;;26.17;18.50;;;;;;;3.32;61.75;102322.28;5000386;28;20289;-54
2022/03/02 07:35:24;;;;;;;26.37;16.50;;;;;;;3.66;60.93;102329.28;5005702;28;22441;-53
2022/03/02 07:37:51;;;;;;;27.93;18.40;;;;;;;3.47;63.30;102324.81;5015052;28;20243;-55
2022/03/02 07:43:41;;;;;;;23.50;16.80;;;;;;;3.04;64.37;102321.59;5008111;28;20270;-53
2022/03/02 07:46:09;;;;;;;27.17;17.43;;;;;;;3.22;62.99;102317.41;5013789;28;20239;-54
2022/03/02 07:48:36;;;;;;;26.90;18.53;;;;;;;3.60;65.12;102318.56;5024466;28;20504;-54
2022/03/02 07:51:04;;;;;;;24.50;16.87;;;;;;;3.90;63.59;102313.22;5017207;28;20450;-53
2022/03/02 07:53:33;;;;;;;22.60;18.43;;;;;;;3.71;62.62;102319.13;5029741;28;20322;-55
2022/03/02 07:56:00;;;;;;;25.27;18.17;;;;;;;3.56;63.23;102320.13;5021822;28;20314;-53
2022/03/02 07:58:27;;;;;;;27.03;17.90;;;;;;;3.34;62.89;102317.19;5020379;28;20917;-54
2022/03/02 08:00:56;;;;;;;27.00;19.03;;;;;;;3.11;63.03;102313.34;5021456;28;20256;-53
2022/03/02 08:03:25;;;;;;;25.13;17.40;;;;;;;3.05;62.51;102313.94;5015249;28;20280;-53
2022/03/02 08:05:52;;;;;;;29.10;18.33;;;;;;;3.55;65.53;102320.06;5016182;28;20726;-55
2022/03/02 08:08:18;;;;;;;27.70;17.87;;;;;;;3.67;64.41;102314.59;5005220;28;20233;-54
2022/03/02 08:10:45;;;;;;;27.97;19.37;;;;;;;3.68;64.86;102313.78;5019836;28;20322;-60
2022/03/02 08:13:12;;;;;;;28.73;18.40;;;;;;;3.59;63.50;102311.59;5030112;28;20230;-56
2022/03/02 08:15:40;;;;;;;27.03;19.20;;;;;;;4.11;64.36;102310.78;5024929;28;20240;-54
2022/03/02 08:18:07;;;;;;;24.53;18.00;;;;;;;4.17;62.73;102311.09;5027196;28;20244;-56
2022/03/02 08:20:35;;;;;;;25.90;18.27;;;;;;;4.45;61.44;102308.16;5019955;28;20266;-55
2022/03/02 08:23:03;;;;;;;24.20;18.20;;;;;;;4.54;60.49;102309.53;5016593;28;20295;-56
2022/03/02 08:25:30;;;;;;;28.80;19.53;;;;;;;3.99;59.86;102308.47;5024989;28;20398;-55
2022/03/02 08:27:59;;;;;;;26.40;18.07;;;;;;;4.09;61.13;102297.72;5018708;28;20294;-55
2022/03/02 08:30:26;;;;;;;30.10;19.23;;;;;;;4.22;58.52;102300.13;5018026;28;20240;-56
2022/03/02 08:32:55;;;;;;;28.47;20.60;;;;;;;3.91;60.92;102297.69;5035216;28;20247;-53
2022/03/02 08:35:23;;;;;;;24.40;17.63;;;;;;;3.93;61.76;102295.16;5033885;28;20275;-54
2022/03/02 08:37:50;;;;;;;27.10;19.47;;;;;;;3.73;60.18;102295.03;5028964;28;20252;-56
2022/03/02 08:40:16;;;;;;;25.90;17.43;;;;;;;4.16;62.16;102285.94;5008486;28;20256;-57
2022/03/02 08:42:44;;;;;;;29.90;20.40;;;;;;;4.45;60.41;102287.38;5005904;28;20271;-56
2022/03/02 08:45:10;;;;;;;27.40;19.10;;;;;;;4.60;59.12;102282.00;5007948;28;20914;-58
2022/03/02 08:47:37;;;;;;;27.43;19.10;;;;;;;4.44;59.01;102285.59;5022996;28;20587;-57
2022/03/02 08:50:04;;;;;;;24.70;17.13;;;;;;;4.63;58.54;102283.03;5011275;28;20302;-56
2022/03/02 08:52:33;;;;;;;26.67;19.03;;;;;;;4.90;59.31;102277.38;5011333;28;20250;-56
2022/03/02 08:55:01;;;;;;;26.80;19.57;;;;;;;5.19;57.33;102282.22;5032475;28;20712;-55
2022/03/02 08:57:28;;;;;;;24.57;18.00;;;;;;;5.16;57.37;102289.91;5012026;28;20235;-55
2022/03/02 08:59:55;;;;;;;26.47;18.57;;;;;;;5.25;55.37;102282.50;4996326;28;20252;-55
2022/03/02 09:02:24;;;;;;;26.27;17.70;;;;;;;5.26;54.83;102272.97;5019848;28;20278;-55
2022/03/02 09:04:51;;;;;;;32.73;19.97;;;;;;;5.02;55.00;102285.78;5016748;28;20247;-54
2022/03/02 09:07:18;;;;;;;28.30;19.43;;;;;;;5.25;58.45;102281.63;5005646;28;20330;-56
2022/03/02 09:09:46;;;;;;;27.40;17.83;;;;;;;5.47;56.74;102289.56;5003484;28;20224;-56
2022/03/02 09:12:14;;;;;;;28.17;18.30;;;;;;;5.63;55.92;102280.72;5008665;28;20260;-56
2022/03/02 09:14:41;;;;;;;25.93;17.00;;;;;;;5.92;56.20;102279.41;5010828;28;20232;-55
2022/03/02 09:17:07;;;;;;;23.67;17.57;;;;;;;6.00;54.98;102269.31;5013250;28;20228;-56
2022/03/02 09:19:35;;;;;;;27.97;18.30;;;;;;;6.16;54.47;102269.13;5014490;28;20236;-55
2022/03/02 09:22:01;;;;;;;19.23;14.73;;;;;;;6.09;51.44;102272.31;5017202;28;20233;-56
2022/03/02 09:24:30;;;;;;;19.40;15.27;;;;;;;5.97;50.08;102274.41;5017260;28;20703;-55
2022/03/02 09:26:58;;;;;;;23.30;15.50;;;;;;;5.75;49.36;102281.25;5022767;28;20279;-56
2022/03/02 09:29:28;;;;;;;24.17;18.48;;;;;;;5.54;49.80;102274.22;5015221;28;20503;-56
2022/03/02 09:31:57;;;;;;;24.37;17.80;;;;;;;5.37;49.84;102276.97;5014077;28;20580;-56
2022/03/02 09:34:26;;;;;;;21.03;16.10;;;;;;;5.46;50.77;102273.88;4996685;28;20322;-55
2022/03/02 09:36:54;;;;;;;21.33;16.83;;;;;;;5.32;51.24;102267.16;5017442;28;20611;-55
2022/03/02 09:39:23;;;;;;;20.60;16.30;;;;;;;5.31;50.39;102268.00;5004074;28;20236;-55
2022/03/02 09:41:52;;;;;;;23.70;16.30;;;;;;;5.22;50.38;102271.94;5017729;28;20617;-55
2022/03/02 09:44:21;;;;;;;23.77;16.47;;;;;;;5.22;50.67;102264.13;5002952;28;20250;-56
2022/03/02 09:46:50;;;;;;;24.77;16.93;;;;;;;5.18;50.07;102270.03;5015678;28;20235;-57
2022/03/02 09:49:21;;;;;;;23.83;17.50;;;;;;;5.15;53.14;102274.19;5004055;28;20272;-55
2022/03/02 09:51:52;;;;;;;25.23;16.17;;;;;;;5.47;54.06;102265.22;5003070;28;20254;-56
2022/03/02 09:54:21;;;;;;;20.77;16.53;;;;;;;5.35;51.62;102273.41;5008705;28;20264;-57
2022/03/02 09:56:49;;;;;;;27.70;16.97;;;;;;;5.55;52.24;102266.47;5016171;28;20255;-58
2022/03/02 09:59:18;;;;;;;23.30;16.17;;;;;;;5.81;49.97;102271.94;5000785;28;20233;-57
2022/03/02 10:01:46;;;;;;;22.67;15.40;;;;;;;5.97;52.36;102264.88;5014378;28;20736;-56
2022/03/02 10:04:17;;;;;;;24.90;16.77;;;;;;;6.10;50.50;102263.66;5008899;28;20229;-55
2022/03/02 10:06:45;;;;;;;25.83;18.03;;;;;;;6.02;49.62;102254.63;5009455;28;20225;-55
2022/03/02 10:09:12;;;;;;;23.17;15.00;;;;;;;6.18;49.94;102256.16;5009762;28;20653;-55
2022/03/02 10:11:41;;;;;;;23.47;16.00;;;;;;;6.14;48.86;102256.84;5007576;28;20225;-56
2022/03/02 10:14:07;;;;;;;20.67;14.93;;;;;;;6.36;49.84;102261.25;5005704;28;20259;-56
2022/03/02 10:16:43;;;;;;;22.63;16.07;;;;;;;6.56;51.24;102256.81;5015877;28;20237;-56
2022/03/02 10:19:17;;;;;;;23.67;16.40;;;;;;;6.50;46.82;102253.97;5013293;28;20240;-54
2022/03/02 10:21:53;;;;;;;23.13;14.30;;;;;;;6.41;46.16;102254.47;5013238;28;20314;-57
2022/03/02 10:24:20;;;;;;;22.07;16.20;;;;;;;6.60;47.69;102251.81;5003440;28;20326;-56
2022/03/02 10:26:51;;;;;;;21.60;14.37;;;;;;;6.61;45.38;102250.97;5009921;28;20887;-56
2022/03/02 10:29:28;;;;;;;20.83;15.47;;;;;;;6.40;45.26;102248.38;5004899;28;20372;-56
2022/03/02 10:32:03;;;;;;;22.15;16.85;;;;;;;6.44;45.13;102250.28;5013381;28;20439;-54
2022/03/02 10:34:36;;;;;;;21.43;15.43;;;;;;;6.71;49.53;102247.00;5014915;28;20256;-56
2022/03/02 10:37:09;;;;;;;19.00;14.13;;;;;;;6.66;46.30;102243.31;5020491;28;20228;-55
2022/03/02 10:39:50;;;;;;;22.37;15.33;;;;;;;6.61;47.63;102227.47;5017591;28;20232;-57
2022/03/02 10:42:21;;;;;;;17.97;12.97;;;;;;;6.89;45.75;102234.66;5013827;28;20244;-57
2022/03/02 10:44:54;;;;;;;18.03;12.57;;;;;;;7.02;46.27;102228.19;5017085;28;20314;-56
2022/03/02 10:47:23;;;;;;;18.43;12.83;;;;;;;7.00;46.41;102232.44;5013738;28;20725;-54
2022/03/02 10:49:52;;;;;;;16.87;12.27;;;;;;;7.21;42.40;102231.47;5021808;28;20233;-56
2022/03/02 10:52:21;;;;;;;16.63;11.97;;;;;;;7.20;41.56;102227.09;5020178;28;20225;-55
2022/03/02 10:54:49;;;;;;;20.37;12.57;;;;;;;7.49;39.76;102221.19;5003338;28;20283;-57
2022/03/02 10:57:16;;;;;;;19.23;12.20;;;;;;;7.40;40.50;102220.84;4998064;28;20253;-56
2022/03/02 10:59:44;;;;;;;20.63;15.35;;;;;;;7.44;40.20;102220.13;5002255;28;20927;-56
2022/03/02 11:02:11;;;;;;;18.50;14.00;;;;;;;7.34;39.28;102223.25;5004068;28;20715;-57
2022/03/02 11:04:39;;;;;;;14.93;11.80;;;;;;;7.15;44.21;102217.34;4994876;28;20308;-54
2022/03/02 11:07:07;;;;;;;20.87;12.97;;;;;;;7.02;39.36;102222.97;4993204;28;20234;-55
2022/03/02 11:09:35;;;;;;;18.80;12.07;;;;;;;6.98;39.31;102226.25;4991425;28;20805;-55
2022/03/02 11:12:01;;;;;;;16.85;13.98;;;;;;;6.88;39.89;102222.44;5013183;28;20485;-56
2022/03/02 11:14:28;;;;;;;20.17;11.67;;;;;;;6.83;38.87;102218.75;5001001;28;20288;-55
2022/03/02 11:17:13;;;;;;;17.15;11.27;;;;;;;6.89;43.18;102212.88;5006647;28;20502;-56
2022/03/02 11:19:43;;;;;;;20.20;13.37;;;;;;;6.74;40.44;102223.63;5017430;28;20248;-58
2022/03/02 11:22:12;;;;;;;19.20;11.27;;;;;;;6.89;39.52;102223.31;4988412;28;20242;-56